Terminal Aerodrome Forecast
Issued by NWS

Home | Current Version | Previous Version | Graphics & Text | Print | Product List | Glossary On
Versions: 1 2 3 4 5 6 7 8 9 10 11 12 13 14
000
FTUS43 KICT 151700
TAFHUT
TAF
KHUT 151734Z 1518/1618 01014G20KT P6SM SCT010 BKN025
      TEMPO 1518/1520 BKN010
     FM152300 04011KT P6SM VCSH OVC020
     FM160600 08011KT P6SM SCT012 BKN025=

USA.gov is the U.S. government's official web portal to all federal, state and local government web resources and services.